Time;durP1;ratioP1;P1;durP2;ratioP2;P2;SDS_P1;SDS_P2;PMS_P1;PMS_P2;Temp;Humidity;BMP_temperature;BMP_pressure;BME280_temperature;BME280_humidity;BME280_pressure;Samples;Min_cycle;Max_cycle;Signal;HPM_P1;HPM_P2
2022/04/13 00:01:13;;;;;;;17.73;8.82;;;10.60;88.60;;;;;;4955153;29;20047;-68
2022/04/13 00:03:42;;;;;;;20.05;9.13;;;10.60;88.60;;;;;;4940452;29;20058;-68
2022/04/13 00:06:10;;;;;;;19.35;9.35;;;10.60;88.60;;;;;;4936808;29;20054;-68
2022/04/13 00:08:40;;;;;;;16.27;9.20;;;10.60;88.50;;;;;;4919666;29;20489;-68
2022/04/13 00:11:07;;;;;;;15.35;8.77;;;10.60;88.50;;;;;;4950687;28;20055;-68
2022/04/13 00:13:35;;;;;;;14.63;8.55;;;10.60;88.50;;;;;;4954125;28;20062;-68
2022/04/13 00:16:03;;;;;;;15.48;8.68;;;10.60;88.50;;;;;;4963967;28;20050;-68
2022/04/13 00:18:31;;;;;;;12.60;8.95;;;10.60;88.50;;;;;;4938197;29;20110;-68
2022/04/13 00:20:59;;;;;;;14.80;9.20;;;10.60;88.50;;;;;;4934698;29;20046;-67
2022/04/13 00:23:27;;;;;;;15.85;9.57;;;10.60;88.50;;;;;;4906785;29;20051;-68
2022/04/13 00:25:55;;;;;;;13.35;9.57;;;10.60;88.50;;;;;;4938582;29;20054;-69
2022/04/13 00:28:23;;;;;;;16.67;10.10;;;10.60;88.40;;;;;;4956075;28;20508;-68
2022/04/13 00:30:51;;;;;;;18.95;10.27;;;10.60;88.50;;;;;;4941714;28;20503;-68
2022/04/13 00:33:18;;;;;;;19.10;10.73;;;10.50;88.50;;;;;;4973820;28;20050;-68
2022/04/13 00:35:46;;;;;;;19.25;11.05;;;10.50;88.60;;;;;;4936001;29;20075;-69
2022/04/13 00:38:14;;;;;;;22.80;11.38;;;10.50;88.60;;;;;;4950178;29;20420;-69
2022/04/13 00:40:43;;;;;;;18.17;11.50;;;10.50;88.70;;;;;;4945194;29;20406;-68
2022/04/13 00:43:11;;;;;;;20.25;12.32;;;10.50;88.70;;;;;;4929895;29;20505;-68
2022/04/13 00:45:38;;;;;;;20.63;11.68;;;10.50;88.70;;;;;;4935555;29;20048;-68
2022/04/13 00:48:14;;;;;;;18.58;11.90;;;10.50;88.80;;;;;;4947559;29;20055;-68
2022/04/13 00:50:41;;;;;;;19.98;12.73;;;10.50;88.90;;;;;;4954490;29;20051;-68
2022/04/13 00:53:15;;;;;;;17.42;11.63;;;10.50;88.90;;;;;;4928019;29;20062;-68
2022/04/13 00:55:44;;;;;;;16.08;11.77;;;10.50;89.00;;;;;;4950519;29;20437;-68
2022/04/13 00:58:15;;;;;;;24.70;13.45;;;10.50;89.00;;;;;;4951895;29;20048;-69
2022/04/13 01:00:50;;;;;;;21.92;12.52;;;10.60;89.00;;;;;;4926035;29;20056;-68
2022/04/13 01:03:25;;;;;;;19.55;12.82;;;10.60;88.90;;;;;;4935907;29;20051;-68
2022/04/13 01:05:54;;;;;;;24.80;14.10;;;10.60;88.90;;;;;;4929060;29;20062;-68
2022/04/13 01:08:22;;;;;;;20.13;12.65;;;10.50;89.00;;;;;;4954841;29;20512;-68
2022/04/13 01:10:50;;;;;;;22.77;13.10;;;10.50;89.00;;;;;;4951162;29;20055;-68
2022/04/13 01:13:20;;;;;;;24.30;12.70;;;10.50;89.10;;;;;;4934565;29;20059;-68
2022/04/13 01:15:48;;;;;;;17.85;11.52;;;10.50;89.10;;;;;;4952079;29;20047;-67
2022/04/13 01:18:18;;;;;;;19.98;11.98;;;10.50;89.10;;;;;;4951819;29;20082;-68
2022/04/13 01:20:53;;;;;;;21.85;11.00;;;10.50;89.10;;;;;;4952266;29;20062;-67
2022/04/13 01:23:22;;;;;;;20.48;10.32;;;10.50;89.20;;;;;;4953017;28;20544;-67
2022/04/13 01:25:54;;;;;;;14.23;9.00;;;10.50;89.20;;;;;;4951703;28;20047;-68
2022/04/13 01:28:24;;;;;;;15.75;9.18;;;10.50;89.20;;;;;;4928053;29;20060;-68
2022/04/13 01:30:57;;;;;;;12.35;8.00;;;10.50;89.20;;;;;;4921401;29;20500;-68
2022/04/13 01:33:28;;;;;;;13.23;7.68;;;10.50;89.20;;;;;;4938870;29;20052;-68
2022/04/13 01:36:01;;;;;;;13.47;7.60;;;10.40;89.10;;;;;;4940161;29;20046;-68
2022/04/13 01:38:30;;;;;;;15.13;7.37;;;10.50;89.10;;;;;;4922412;29;20062;-68
2022/04/13 01:40:58;;;;;;;12.05;7.93;;;10.50;89.00;;;;;;4941601;29;20055;-68
2022/04/13 01:43:26;;;;;;;15.00;8.00;;;10.50;89.00;;;;;;4922456;29;20051;-67
2022/04/13 01:45:55;;;;;;;12.70;7.97;;;10.50;88.90;;;;;;4941845;29;20848;-68
2022/04/13 01:48:23;;;;;;;18.38;8.40;;;10.50;89.00;;;;;;4944743;29;20612;-68
2022/04/13 01:50:50;;;;;;;16.63;8.93;;;10.40;88.90;;;;;;4941450;28;20070;-68
2022/04/13 01:53:18;;;;;;;12.70;8.32;;;10.40;89.00;;;;;;4939662;29;20063;-68
2022/04/13 01:55:47;;;;;;;16.67;8.20;;;10.40;89.00;;;;;;4941135;29;20063;-68
2022/04/13 01:58:15;;;;;;;17.10;8.63;;;10.40;89.10;;;;;;4943534;29;20055;-68
2022/04/13 02:00:43;;;;;;;18.27;8.40;;;10.30;89.10;;;;;;4926278;29;20062;-67
2022/04/13 02:03:14;;;;;;;15.63;9.18;;;10.30;89.10;;;;;;4943518;29;20091;-68
2022/04/13 02:05:42;;;;;;;23.48;9.23;;;10.30;89.20;;;;;;4930126;29;20052;-68
2022/04/13 02:08:10;;;;;;;15.77;8.60;;;10.30;89.20;;;;;;4942489;29;20043;-68
2022/04/13 02:10:37;;;;;;;21.55;9.45;;;10.30;89.20;;;;;;4922535;29;20052;-68
2022/04/13 02:13:05;;;;;;;17.50;9.02;;;10.40;89.30;;;;;;4939806;29;20164;-68
2022/04/13 02:15:33;;;;;;;12.18;8.00;;;10.40;89.20;;;;;;4942649;29;20051;-68
2022/04/13 02:18:00;;;;;;;16.10;8.00;;;10.30;89.20;;;;;;4941993;28;20055;-67
2022/04/13 02:20:28;;;;;;;15.85;8.05;;;10.40;89.30;;;;;;4915020;29;20417;-68
2022/04/13 02:22:55;;;;;;;13.68;7.57;;;10.40;89.30;;;;;;4927976;29;20051;-68
2022/04/13 02:25:23;;;;;;;14.38;8.02;;;10.40;89.30;;;;;;4942816;29;20465;-68
2022/04/13 02:27:51;;;;;;;15.00;8.15;;;10.40;89.30;;;;;;4942212;28;20501;-68
2022/04/13 02:30:18;;;;;;;20.90;9.38;;;10.40;89.30;;;;;;4911330;29;20485;-68
2022/04/13 02:32:46;;;;;;;18.83;8.85;;;10.40;89.30;;;;;;4940666;28;20494;-68
2022/04/13 02:35:14;;;;;;;14.57;9.13;;;10.40;89.30;;;;;;4944078;29;20067;-68
2022/04/13 02:37:43;;;;;;;14.30;8.77;;;10.40;89.30;;;;;;4938146;28;20067;-68
2022/04/13 02:40:14;;;;;;;13.60;8.07;;;10.40;89.30;;;;;;4928150;28;20070;-68
2022/04/13 02:42:42;;;;;;;19.33;9.30;;;10.30;89.30;;;;;;4946494;28;20502;-68
2022/04/13 02:45:10;;;;;;;16.35;8.63;;;10.40;89.30;;;;;;4945279;29;20051;-68
2022/04/13 02:47:38;;;;;;;17.45;8.68;;;10.40;89.30;;;;;;4932928;29;20441;-69
2022/04/13 02:50:06;;;;;;;13.55;8.75;;;10.30;89.30;;;;;;4912301;29;20055;-68
2022/04/13 02:52:34;;;;;;;17.92;9.50;;;10.40;89.40;;;;;;4943744;28;20047;-68
2022/04/13 02:55:02;;;;;;;11.75;7.88;;;10.40;89.30;;;;;;4942564;29;20066;-68
2022/04/13 02:57:29;;;;;;;17.63;8.50;;;10.30;89.30;;;;;;4945843;29;20062;-68
2022/04/13 02:59:58;;;;;;;17.60;8.40;;;10.40;89.30;;;;;;4944055;28;20074;-67
2022/04/13 03:02:29;;;;;;;15.98;8.20;;;10.40;89.30;;;;;;4943071;28;20066;-68
2022/04/13 03:04:57;;;;;;;13.95;8.48;;;10.30;89.30;;;;;;4935225;29;20043;-68
2022/04/13 03:07:28;;;;;;;16.13;8.60;;;10.30;89.30;;;;;;4925331;29;20055;-68
2022/04/13 03:09:55;;;;;;;15.55;8.98;;;10.40;89.30;;;;;;4921943;29;20409;-68
2022/04/13 03:12:23;;;;;;;15.30;8.63;;;10.40;89.30;;;;;;4945536;28;20489;-68
2022/04/13 03:14:51;;;;;;;16.73;8.82;;;10.40;89.30;;;;;;4928766;29;20086;-68
2022/04/13 03:17:19;;;;;;;16.75;8.52;;;10.40;89.30;;;;;;4911387;29;20069;-68
2022/04/13 03:19:47;;;;;;;19.05;8.85;;;10.40;89.30;;;;;;4943528;29;20052;-68
2022/04/13 03:22:14;;;;;;;19.00;9.07;;;10.30;89.30;;;;;;4925002;29;20044;-68
2022/04/13 03:24:44;;;;;;;17.33;9.40;;;10.30;89.30;;;;;;4943756;29;20050;-68
2022/04/13 03:27:11;;;;;;;14.77;9.10;;;10.30;89.30;;;;;;4943537;29;20051;-67
2022/04/13 03:29:39;;;;;;;21.60;9.43;;;10.40;89.30;;;;;;4943844;29;20050;-68
2022/04/13 03:32:07;;;;;;;17.80;9.35;;;10.40;89.30;;;;;;4946311;28;20043;-68
2022/04/13 03:34:35;;;;;;;19.52;9.27;;;10.40;89.30;;;;;;4945723;29;20051;-68
2022/04/13 03:37:03;;;;;;;16.63;10.10;;;10.30;89.30;;;;;;4943676;29;20052;-68
2022/04/13 03:39:31;;;;;;;16.67;9.65;;;10.40;89.30;;;;;;4932620;29;20534;-68
2022/04/13 03:41:59;;;;;;;21.83;10.27;;;10.30;89.30;;;;;;4928512;29;20047;-67
2022/04/13 03:44:26;;;;;;;18.85;10.40;;;10.30;89.30;;;;;;4945098;29;20059;-68
2022/04/13 03:46:54;;;;;;;16.48;9.55;;;10.30;89.30;;;;;;4942712;29;20517;-67
2022/04/13 03:49:22;;;;;;;16.13;9.45;;;10.30;89.30;;;;;;4942613;28;20039;-69
2022/04/13 03:51:49;;;;;;;21.77;10.23;;;10.30;89.30;;;;;;4945088;29;20048;-69
2022/04/13 03:54:17;;;;;;;17.60;9.82;;;10.30;89.30;;;;;;4943436;28;20126;-69
2022/04/13 03:56:45;;;;;;;14.43;9.57;;;10.30;89.30;;;;;;4944268;28;20039;-69
2022/04/13 03:59:13;;;;;;;20.80;10.50;;;10.30;89.30;;;;;;4944047;29;20055;-69
2022/04/13 04:01:40;;;;;;;16.55;10.02;;;10.30;89.30;;;;;;4946524;29;20116;-70
2022/04/13 04:04:10;;;;;;;16.38;10.80;;;10.30;89.30;;;;;;4942616;29;20424;-69
2022/04/13 04:06:37;;;;;;;14.68;9.93;;;10.30;89.30;;;;;;4942666;28;20525;-69
2022/04/13 04:09:05;;;;;;;14.48;9.70;;;10.30;89.40;;;;;;4926769;29;20497;-69
2022/04/13 04:11:33;;;;;;;14.15;9.73;;;10.30;89.40;;;;;;4944507;29;20051;-69
2022/04/13 04:14:00;;;;;;;19.15;10.90;;;10.30;89.40;;;;;;4925218;29;20050;-69
2022/04/13 04:16:28;;;;;;;20.38;11.52;;;10.30;89.40;;;;;;4926499;29;20497;-69
2022/04/13 04:18:56;;;;;;;16.20;11.88;;;10.30;89.30;;;;;;4944365;29;20482;-69
2022/04/13 04:21:23;;;;;;;21.65;11.75;;;10.30;89.40;;;;;;4945852;29;20047;-69
2022/04/13 04:23:51;;;;;;;21.50;13.10;;;10.30;89.40;;;;;;4944177;29;20054;-69
2022/04/13 04:26:18;;;;;;;21.50;12.73;;;10.20;89.40;;;;;;4945267;29;20059;-69
2022/04/13 04:28:46;;;;;;;21.33;13.23;;;10.20;89.40;;;;;;4944438;28;20401;-69
2022/04/13 04:31:15;;;;;;;25.55;13.40;;;10.20;89.40;;;;;;4944663;28;20101;-69
2022/04/13 04:33:43;;;;;;;24.65;13.80;;;10.10;89.50;;;;;;4944022;29;20536;-69
2022/04/13 04:36:11;;;;;;;25.02;14.43;;;10.10;89.60;;;;;;4944009;29;20067;-69
2022/04/13 04:38:38;;;;;;;25.73;15.25;;;10.10;89.70;;;;;;4943715;29;20050;-69
2022/04/13 04:41:07;;;;;;;24.85;15.20;;;10.10;89.80;;;;;;4943808;28;20058;-69
2022/04/13 04:43:35;;;;;;;25.17;15.88;;;10.10;89.80;;;;;;4943410;29;20488;-69
2022/04/13 04:46:02;;;;;;;26.08;15.95;;;10.00;89.90;;;;;;4928008;29;20099;-69
2022/04/13 04:48:30;;;;;;;27.25;14.73;;;10.10;89.90;;;;;;4933835;29;20036;-68
2022/04/13 04:50:57;;;;;;;23.98;15.43;;;10.00;89.90;;;;;;4922075;29;20047;-68
2022/04/13 04:53:26;;;;;;;25.17;13.90;;;10.00;90.00;;;;;;4941216;28;20062;-68
2022/04/13 04:55:54;;;;;;;25.55;15.63;;;10.10;90.10;;;;;;4940894;29;20501;-68
2022/04/13 04:58:21;;;;;;;28.95;15.82;;;10.10;90.10;;;;;;4921679;29;20048;-68
2022/04/13 05:00:49;;;;;;;26.75;16.17;;;10.10;90.20;;;;;;4941607;28;20508;-68
2022/04/13 05:03:16;;;;;;;25.08;16.33;;;10.10;90.20;;;;;;4943973;29;20383;-68
2022/04/13 05:05:44;;;;;;;28.63;17.30;;;10.10;90.20;;;;;;4942424;28;20047;-68
2022/04/13 05:08:13;;;;;;;25.30;17.23;;;10.10;90.20;;;;;;4940561;29;20055;-68
2022/04/13 05:10:42;;;;;;;32.47;17.58;;;10.20;90.30;;;;;;4939268;29;20062;-69
2022/04/13 05:13:10;;;;;;;30.63;17.75;;;10.20;90.30;;;;;;4941150;29;20070;-68
2022/04/13 05:15:37;;;;;;;26.63;16.65;;;10.20;90.30;;;;;;4942695;29;20555;-68
2022/04/13 05:18:05;;;;;;;26.25;16.52;;;10.20;90.30;;;;;;4939324;29;20067;-68
2022/04/13 05:20:33;;;;;;;27.00;17.20;;;10.20;90.40;;;;;;4940713;29;20054;-68
2022/04/13 05:23:00;;;;;;;27.05;16.85;;;10.30;90.40;;;;;;4931743;29;20040;-68
2022/04/13 05:25:29;;;;;;;27.40;17.98;;;10.30;90.40;;;;;;4941279;28;20047;-68
2022/04/13 05:27:56;;;;;;;29.08;17.73;;;10.20;90.40;;;;;;4942504;29;20052;-67
2022/04/13 05:30:24;;;;;;;27.38;17.00;;;10.30;90.30;;;;;;4942917;29;20070;-67
2022/04/13 05:32:56;;;;;;;28.30;17.08;;;10.30;90.30;;;;;;4941202;28;20051;-68
2022/04/13 05:35:25;;;;;;;29.27;17.90;;;10.30;90.30;;;;;;4944023;28;20055;-68
2022/04/13 05:37:56;;;;;;;26.92;17.70;;;10.30;90.30;;;;;;4939955;28;20078;-68
2022/04/13 05:40:24;;;;;;;30.52;18.08;;;10.30;90.30;;;;;;4942335;29;20399;-68
2022/04/13 05:42:55;;;;;;;27.05;16.95;;;10.30;90.20;;;;;;4940898;28;20056;-68
2022/04/13 05:45:24;;;;;;;27.23;16.55;;;10.30;90.20;;;;;;4923757;29;20544;-68
2022/04/13 05:47:52;;;;;;;27.70;16.20;;;10.30;90.20;;;;;;4944396;28;20043;-68
2022/04/13 05:50:20;;;;;;;23.20;15.57;;;10.30;90.20;;;;;;4937745;29;20481;-68
2022/04/13 05:52:47;;;;;;;22.25;14.25;;;10.40;90.20;;;;;;4941277;29;20043;-68
2022/04/13 05:55:15;;;;;;;23.42;14.57;;;10.40;90.10;;;;;;4941159;29;20353;-68
2022/04/13 05:57:43;;;;;;;21.73;14.15;;;10.40;90.10;;;;;;4940328;28;20536;-68
2022/04/13 06:00:12;;;;;;;22.50;13.15;;;10.30;90.10;;;;;;4941378;28;20052;-67
2022/04/13 06:02:41;;;;;;;21.85;14.27;;;10.40;90.10;;;;;;4945704;28;20052;-68
2022/04/13 06:05:09;;;;;;;24.73;13.88;;;10.40;90.10;;;;;;4940775;29;20054;-68
2022/04/13 06:07:37;;;;;;;21.70;13.70;;;10.40;90.10;;;;;;4943527;29;20062;-68
2022/04/13 06:10:05;;;;;;;24.73;14.68;;;10.40;90.10;;;;;;4941720;29;20505;-68
2022/04/13 06:12:33;;;;;;;22.02;14.93;;;10.40;90.10;;;;;;4944379;29;20048;-68
2022/04/13 06:15:05;;;;;;;21.20;14.15;;;10.40;90.10;;;;;;4946754;28;20769;-68
2022/04/13 06:17:33;;;;;;;34.03;15.05;;;10.40;90.10;;;;;;4948110;28;20520;-68
2022/04/13 06:20:01;;;;;;;20.70;14.45;;;10.40;90.20;;;;;;4947786;28;20044;-68
2022/04/13 06:22:32;;;;;;;22.00;14.40;;;10.40;90.20;;;;;;4948240;29;20045;-68
2022/04/13 06:25:04;;;;;;;22.45;13.57;;;10.50;90.20;;;;;;4946122;29;20055;-68
2022/04/13 06:27:31;;;;;;;23.90;14.85;;;10.40;90.20;;;;;;4949773;28;20528;-68
2022/04/13 06:29:59;;;;;;;21.38;14.13;;;10.50;90.20;;;;;;4945728;28;20055;-68
2022/04/13 06:32:43;;;;;;;23.23;13.68;;;10.50;90.20;;;;;;4948757;28;20043;-69
2022/04/13 06:35:16;;;;;;;18.95;12.40;;;10.60;90.20;;;;;;4926230;29;20389;-69
2022/04/13 06:37:47;;;;;;;18.80;12.40;;;10.60;90.10;;;;;;4946884;28;20055;-68
2022/04/13 06:40:15;;;;;;;18.65;12.00;;;10.60;90.10;;;;;;4948595;29;20055;-68
2022/04/13 06:42:43;;;;;;;14.38;10.35;;;10.60;90.10;;;;;;4947830;28;20040;-68
2022/04/13 06:45:13;;;;;;;14.65;10.98;;;10.60;90.10;;;;;;4948835;28;20531;-69
2022/04/13 06:47:41;;;;;;;17.50;10.57;;;10.70;90.00;;;;;;4931513;29;20043;-69
2022/04/13 06:50:10;;;;;;;14.95;11.05;;;10.60;90.00;;;;;;4948757;28;20051;-69
2022/04/13 06:52:39;;;;;;;17.05;10.63;;;10.70;90.00;;;;;;4948778;29;20039;-69
2022/04/13 06:55:09;;;;;;;17.02;11.30;;;10.70;90.00;;;;;;4946067;29;20043;-69
2022/04/13 06:57:38;;;;;;;14.77;9.77;;;10.80;90.00;;;;;;4925143;29;20103;-68
2022/04/13 07:00:11;;;;;;;14.65;10.15;;;10.80;90.00;;;;;;4946875;28;20058;-69
2022/04/13 07:02:40;;;;;;;14.25;10.90;;;10.90;89.90;;;;;;4947630;29;20055;-69
2022/04/13 07:05:29;;;;;;;11.23;9.27;;;11.00;89.80;;;;;;4946352;29;20059;-69
2022/04/13 07:07:58;;;;;;;13.10;9.55;;;11.20;89.50;;;;;;4931861;29;20067;-69
2022/04/13 07:10:27;;;;;;;14.23;9.20;;;11.30;89.30;;;;;;4945932;29;20070;-69
2022/04/13 07:12:55;;;;;;;14.15;9.60;;;11.30;89.20;;;;;;4945950;28;20412;-69
2022/04/13 07:15:25;;;;;;;11.45;8.10;;;11.40;89.00;;;;;;4928310;28;20048;-69
2022/04/13 07:17:54;;;;;;;11.38;8.05;;;11.50;88.80;;;;;;4930749;29;21793;-69
2022/04/13 07:20:21;;;;;;;12.82;8.52;;;11.50;88.60;;;;;;4943152;29;20058;-69
2022/04/13 07:22:52;;;;;;;14.15;8.68;;;11.60;88.60;;;;;;4948132;28;20051;-69
2022/04/13 07:25:21;;;;;;;10.85;7.78;;;11.60;88.50;;;;;;4944357;28;20047;-69
2022/04/13 07:27:50;;;;;;;13.23;7.05;;;11.60;88.40;;;;;;4930580;29;20043;-69
2022/04/13 07:30:18;;;;;;;11.68;7.80;;;11.60;88.20;;;;;;4929337;29;20031;-69
2022/04/13 07:32:47;;;;;;;9.13;7.55;;;11.60;88.20;;;;;;4945424;28;20052;-68
2022/04/13 07:35:16;;;;;;;10.00;7.05;;;11.60;88.30;;;;;;4945088;29;20043;-69
2022/04/13 07:37:43;;;;;;;10.45;5.78;;;11.70;88.30;;;;;;4928625;29;20048;-69
2022/04/13 07:40:13;;;;;;;12.35;6.45;;;11.80;88.30;;;;;;4941038;29;20417;-69
2022/04/13 07:42:41;;;;;;;7.78;5.22;;;11.80;88.30;;;;;;4944707;28;20047;-69
2022/04/13 07:45:09;;;;;;;7.22;4.95;;;11.80;87.90;;;;;;4926322;29;20054;-69
2022/04/13 07:47:37;;;;;;;6.20;4.38;;;11.90;87.90;;;;;;4929346;29;20406;-69
2022/04/13 07:50:06;;;;;;;6.28;3.83;;;11.90;87.60;;;;;;4945190;29;20051;-69
2022/04/13 07:52:35;;;;;;;7.65;4.38;;;12.00;87.20;;;;;;4942530;28;20048;-69
2022/04/13 07:55:03;;;;;;;8.18;4.43;;;12.00;87.00;;;;;;4943079;29;20044;-69
2022/04/13 07:57:31;;;;;;;12.57;4.18;;;12.10;87.00;;;;;;4944691;29;20054;-68
2022/04/13 07:59:59;;;;;;;6.05;4.35;;;12.20;87.10;;;;;;4922230;29;20040;-68
2022/04/13 08:02:27;;;;;;;5.97;3.38;;;12.30;86.30;;;;;;4931048;29;20074;-69
2022/04/13 08:04:55;;;;;;;6.38;3.67;;;12.30;86.10;;;;;;4948141;29;20048;-69
2022/04/13 08:07:30;;;;;;;6.55;3.90;;;12.40;85.50;;;;;;4939355;29;20048;-68
2022/04/13 08:09:57;;;;;;;5.80;3.90;;;12.40;85.50;;;;;;4947326;28;20047;-69
2022/04/13 08:12:29;;;;;;;6.63;3.42;;;12.40;85.40;;;;;;4946906;29;20035;-68
2022/04/13 08:14:57;;;;;;;8.95;4.30;;;12.30;85.40;;;;;;4944839;29;20055;-68
2022/04/13 08:17:26;;;;;;;7.13;3.80;;;12.10;85.80;;;;;;4943113;29;20047;-68
2022/04/13 08:19:54;;;;;;;4.25;3.42;;;12.10;86.20;;;;;;4930881;29;20055;-68
2022/04/13 08:22:26;;;;;;;9.13;4.68;;;12.10;86.40;;;;;;4944926;28;20548;-68
2022/04/13 08:24:54;;;;;;;7.68;4.22;;;12.00;86.30;;;;;;4940677;29;20394;-69
2022/04/13 08:27:22;;;;;;;10.55;4.57;;;12.00;86.40;;;;;;4943284;29;20445;-68
2022/04/13 08:29:49;;;;;;;6.03;3.78;;;12.00;86.60;;;;;;4942218;28;20052;-68
2022/04/13 08:32:18;;;;;;;4.75;3.97;;;12.10;86.50;;;;;;4943044;28;20039;-68
2022/04/13 08:34:48;;;;;;;4.95;3.75;;;12.10;86.40;;;;;;4943707;29;20689;-68
2022/04/13 08:37:15;;;;;;;9.27;3.50;;;12.20;86.30;;;;;;4928386;29;20070;-69
2022/04/13 08:39:43;;;;;;;9.63;4.68;;;12.20;85.80;;;;;;4944416;29;20036;-68
2022/04/13 08:42:29;;;;;;;4.78;4.20;;;12.20;85.80;;;;;;4941153;29;20402;-67
2022/04/13 08:45:03;;;;;;;6.90;3.92;;;12.30;86.20;;;;;;4941888;29;20057;-69
2022/04/13 08:47:37;;;;;;;7.47;4.20;;;12.30;86.10;;;;;;4942957;29;20043;-68
2022/04/13 08:50:06;;;;;;;7.57;3.97;;;12.30;85.90;;;;;;4927782;29;20448;-67
2022/04/13 08:52:38;;;;;;;15.48;4.13;;;12.30;85.90;;;;;;4942481;29;20054;-68
2022/04/13 08:55:11;;;;;;;8.50;4.90;;;12.40;85.50;;;;;;4922614;29;20693;-68
2022/04/13 08:57:47;;;;;;;7.63;4.43;;;12.30;85.60;;;;;;4927488;29;20051;-68
2022/04/13 09:00:16;;;;;;;5.53;3.72;;;12.30;85.70;;;;;;4942285;29;20051;-68
2022/04/13 09:02:50;;;;;;;6.30;3.58;;;12.30;85.80;;;;;;4939829;29;20067;-69
2022/04/13 09:05:19;;;;;;;;;;;12.30;85.70;;;;;;4939354;29;20051;-68
2022/04/13 09:07:53;;;;;;;5.90;3.38;;;12.30;85.70;;;;;;4943947;29;20273;-69
2022/04/13 09:10:22;;;;;;;6.18;3.50;;;12.30;85.60;;;;;;4940602;29;20054;-69
2022/04/13 09:12:51;;;;;;;6.03;3.53;;;12.20;85.30;;;;;;4925584;29;20050;-68
2022/04/13 09:15:20;;;;;;;9.63;3.97;;;12.20;85.30;;;;;;4940486;28;20050;-67
2022/04/13 09:17:54;;;;;;;8.32;3.20;;;12.20;85.30;;;;;;4940267;29;20048;-68
2022/04/13 09:20:22;;;;;;;6.25;3.85;;;12.20;85.30;;;;;;4947467;28;20051;-68
2022/04/13 09:22:52;;;;;;;5.47;3.13;;;12.20;85.20;;;;;;4941384;29;20043;-67
2022/04/13 09:25:23;;;;;;;9.13;4.18;;;12.20;85.50;;;;;;4924192;29;20044;-69
2022/04/13 09:27:52;;;;;;;8.73;3.92;;;12.20;85.40;;;;;;4946057;28;20405;-69
2022/04/13 09:30:20;;;;;;;8.40;4.10;;;12.20;85.40;;;;;;4938833;29;20055;-68
2022/04/13 09:32:50;;;;;;;6.43;3.85;;;12.20;85.30;;;;;;4930718;29;20043;-69
2022/04/13 09:35:18;;;;;;;6.93;4.15;;;12.20;85.30;;;;;;4929697;29;20066;-70
2022/04/13 09:37:47;;;;;;;7.15;3.95;;;12.30;85.30;;;;;;4943434;29;20059;-69
2022/04/13 09:40:31;;;;;;;5.38;4.07;;;12.30;85.40;;;;;;4941467;29;20051;-69
2022/04/13 09:43:06;;;;;;;7.13;4.25;;;12.30;85.50;;;;;;4940924;29;20043;-69
2022/04/13 09:45:40;;;;;;;7.40;4.38;;;12.30;85.40;;;;;;4942590;29;20052;-69
2022/04/13 09:48:10;;;;;;;4.78;4.03;;;12.30;85.20;;;;;;4928165;29;20058;-69
2022/04/13 09:50:39;;;;;;;7.38;4.13;;;12.50;85.20;;;;;;4942051;29;20496;-68
2022/04/13 09:53:08;;;;;;;6.32;4.60;;;12.60;84.80;;;;;;4938302;29;20047;-69
2022/04/13 09:55:43;;;;;;;8.30;4.93;;;12.80;84.60;;;;;;4940232;29;20054;-69
2022/04/13 09:58:16;;;;;;;7.60;4.30;;;13.00;84.50;;;;;;4941494;29;20043;-69
2022/04/13 10:00:49;;;;;;;5.35;3.95;;;13.20;84.20;;;;;;4938170;28;20390;-69
2022/04/13 10:03:19;;;;;;;4.10;3.55;;;13.40;83.70;;;;;;4943821;28;20047;-69
2022/04/13 10:05:50;;;;;;;5.97;3.67;;;13.50;82.80;;;;;;4939415;29;20044;-69
2022/04/13 10:08:22;;;;;;;4.40;3.70;;;13.50;81.60;;;;;;4939994;28;20044;-69
2022/04/13 10:10:52;;;;;;;3.80;3.40;;;13.40;81.60;;;;;;4940534;29;20051;-69
2022/04/13 10:13:40;;;;;;;3.35;3.00;;;13.30;81.70;;;;;;4924837;29;20048;-69
2022/04/13 10:16:13;;;;;;;6.30;4.00;;;13.10;81.60;;;;;;4948381;29;20055;-69
2022/04/13 10:19:05;;;;;;;6.50;3.55;;;13.00;81.80;;;;;;4941309;28;20043;-69
2022/04/13 10:21:45;;;;;;;7.85;4.40;;;13.00;82.20;;;;;;4939884;29;20040;-69
2022/04/13 10:24:18;;;;;;;9.18;4.35;;;13.00;82.60;;;;;;4939154;28;20059;-69
2022/04/13 10:27:10;;;;;;;5.70;3.92;;;13.20;82.80;;;;;;4926998;29;20047;-69
2022/04/13 10:29:40;;;;;;;6.65;3.20;;;13.40;82.40;;;;;;4941055;28;20055;-69
2022/04/13 10:32:16;;;;;;;2.63;2.00;;;13.60;82.10;;;;;;4941504;29;20040;-70
2022/04/13 10:34:46;;;;;;;2.15;1.50;;;13.90;81.50;;;;;;4941071;29;20440;-68
2022/04/13 10:37:20;;;;;;;2.25;1.92;;;14.00;80.00;;;;;;4912140;29;20070;-69
2022/04/13 10:39:51;;;;;;;2.10;1.20;;;14.10;79.50;;;;;;4938803;28;20058;-70
2022/04/13 10:42:21;;;;;;;1.88;1.05;;;14.20;78.40;;;;;;4940663;29;20052;-69
2022/04/13 10:45:07;;;;;;;2.53;1.50;;;14.30;78.20;;;;;;4921904;29;20047;-74
2022/04/13 10:47:43;;;;;;;1.77;1.60;;;14.30;77.80;;;;;;4933616;29;20486;-72
2022/04/13 10:50:13;;;;;;;2.97;1.63;;;14.30;77.70;;;;;;4924903;29;20520;-71
2022/04/13 10:53:13;;;;;;;2.28;1.30;;;14.30;77.30;;;;;;4905420;29;20405;-72
2022/04/13 10:55:42;;;;;;;1.85;1.42;;;14.20;77.40;;;;;;4900558;29;20067;-72
2022/04/13 10:58:33;;;;;;;4.78;1.83;;;14.00;77.20;;;;;;4941849;28;20043;-71
2022/04/13 11:01:05;;;;;;;3.20;1.52;;;13.90;77.00;;;;;;4930545;29;20047;-71
2022/04/13 11:03:36;;;;;;;2.65;1.70;;;13.80;77.00;;;;;;4946162;29;20054;-71
2022/04/13 11:06:09;;;;;;;4.38;1.80;;;13.80;77.30;;;;;;4943945;29;20400;-71
2022/04/13 11:08:51;;;;;;;;;;;13.80;77.30;;;;;;4944630;29;20040;-71
2022/04/13 11:11:21;;;;;;;4.03;1.58;;;13.80;77.60;;;;;;4946152;28;19930;-71
2022/04/13 11:13:51;;;;;;;1.73;1.48;;;13.80;77.70;;;;;;4915516;29;20413;-71
2022/04/13 11:16:19;;;;;;;4.70;2.15;;;13.80;77.90;;;;;;4918808;29;20140;-71
2022/04/13 11:19:06;;;;;;;1.20;1.08;;;13.80;77.70;;;;;;4945509;29;20044;-72
2022/04/13 11:21:54;;;;;;;1.73;1.50;;;14.00;77.70;;;;;;4926065;29;20032;-72
2022/04/13 11:24:33;;;;;;;3.38;1.30;;;14.20;77.50;;;;;;4928585;29;20055;-72
2022/04/13 11:27:02;;;;;;;2.05;1.40;;;14.30;76.30;;;;;;4944710;28;20442;-72
2022/04/13 11:29:44;;;;;;;2.10;1.02;;;14.50;76.10;;;;;;4931115;28;20044;-72
2022/04/13 11:32:13;;;;;;;1.40;1.00;;;14.80;75.80;;;;;;4945431;28;20051;-72
2022/04/13 11:34:49;;;;;;;1.85;1.08;;;14.80;73.70;;;;;;4945307;29;20051;-72
2022/04/13 11:37:19;;;;;;;1.05;0.80;;;14.90;73.00;;;;;;4916325;29;20058;-72
2022/04/13 11:39:59;;;;;;;1.10;1.00;;;14.90;73.30;;;;;;4929103;29;20047;-72
2022/04/13 11:42:28;;;;;;;0.95;0.80;;;15.00;73.20;;;;;;4944150;29;20066;-72
2022/04/13 11:45:05;;;;;;;1.23;0.75;;;15.10;72.70;;;;;;4942774;28;20035;-72
2022/04/13 11:47:48;;;;;;;0.50;0.50;;;15.00;72.50;;;;;;4930971;29;20047;-72
2022/04/13 11:50:19;;;;;;;3.70;0.85;;;15.10;72.30;;;;;;4928904;29;20040;-72
2022/04/13 11:53:29;;;;;;;2.25;0.98;;;15.50;71.10;;;;;;4930020;29;20044;-72
2022/04/13 11:56:00;;;;;;;1.02;0.80;;;15.90;69.60;;;;;;4882013;29;20051;-72
2022/04/13 11:58:30;;;;;;;2.30;1.20;;;16.00;67.60;;;;;;4880776;29;20059;-72
2022/04/13 12:01:09;;;;;;;1.55;0.70;;;15.80;68.60;;;;;;4879779;29;20080;-72
2022/04/13 12:03:39;;;;;;;0.93;0.60;;;16.00;69.00;;;;;;4895067;29;21061;-72
2022/04/13 12:06:09;;;;;;;1.55;0.80;;;16.30;67.30;;;;;;4880763;29;20049;-72
2022/04/13 12:08:42;;;;;;;1.38;0.70;;;16.60;67.30;;;;;;4897502;29;20497;-72
2022/04/13 12:11:12;;;;;;;1.73;0.45;;;17.00;66.30;;;;;;4879176;29;20050;-71
2022/04/13 12:13:57;;;;;;;0.95;0.50;;;17.50;64.60;;;;;;4879144;29;20236;-72
2022/04/13 12:16:33;;;;;;;1.48;0.57;;;17.70;62.90;;;;;;4880819;29;20072;-72
2022/04/13 12:19:05;;;;;;;1.35;0.60;;;17.90;60.70;;;;;;4878680;29;20061;-71
2022/04/13 12:21:36;;;;;;;1.25;0.60;;;18.00;60.10;;;;;;4879420;29;20049;-73
2022/04/13 12:24:06;;;;;;;0.88;0.50;;;18.10;56.50;;;;;;4863433;29;20056;-71
2022/04/13 12:26:47;;;;;;;2.25;0.65;;;18.10;57.70;;;;;;4905832;29;20066;-73
2022/04/13 12:29:16;;;;;;;1.52;0.65;;;18.10;58.50;;;;;;4942223;29;20058;-72
2022/04/13 12:31:51;;;;;;;1.02;0.40;;;18.30;57.50;;;;;;4924879;29;20046;-72
2022/04/13 12:34:24;;;;;;;3.10;0.70;;;18.70;57.40;;;;;;4914717;29;20377;-71
2022/04/13 12:36:54;;;;;;;0.95;0.43;;;19.30;56.10;;;;;;4942870;29;20047;-71
2022/04/13 12:39:26;;;;;;;1.58;0.52;;;19.80;54.40;;;;;;4944898;29;20067;-71
2022/04/13 12:41:54;;;;;;;0.93;0.43;;;20.20;52.30;;;;;;4928745;29;20047;-72
2022/04/13 12:44:22;;;;;;;2.55;0.80;;;20.20;49.00;;;;;;4944536;29;20047;-73
2022/04/13 12:47:01;;;;;;;1.05;0.60;;;19.50;50.50;;;;;;4912577;29;20052;-73
2022/04/13 12:49:31;;;;;;;1.33;0.70;;;19.10;52.40;;;;;;4926369;29;20051;-72
2022/04/13 12:51:58;;;;;;;1.70;0.80;;;19.20;52.60;;;;;;4926085;29;20055;-72
2022/04/13 12:54:26;;;;;;;2.97;1.02;;;19.50;52.00;;;;;;4930158;29;20490;-71